Time;durP1;ratioP1;P1;durP2;ratioP2;P2;SDS_P1;SDS_P2;PMS_P1;PMS_P2;Temp;Humidity;BMP_temperature;BMP_pressure;BME280_temperature;BME280_humidity;BME280_pressure;Samples;Min_cycle;Max_cycle;Signal;HPM_P1;HPM_P2
2021/07/19 00:01:20;;;;;;;9.20;4.30;;;18.40;99.90;;;;;;5083011;28;20531;-57
2021/07/19 00:03:46;;;;;;;7.55;3.92;;;18.20;99.90;;;;;;5078333;28;20765;-58
2021/07/19 00:06:11;;;;;;;6.97;4.17;;;18.20;99.90;;;;;;5082801;28;20402;-57
2021/07/19 00:08:37;;;;;;;8.55;4.50;;;18.20;99.90;;;;;;5073128;28;20513;-56
2021/07/19 00:11:04;;;;;;;8.07;4.10;;;18.20;99.90;;;;;;5076964;28;20494;-57
2021/07/19 00:13:29;;;;;;;7.50;4.20;;;18.30;99.90;;;;;;5081321;28;20472;-58
2021/07/19 00:15:55;;;;;;;11.10;5.35;;;18.30;99.90;;;;;;5072087;28;20849;-55
2021/07/19 00:18:21;;;;;;;8.80;4.45;;;18.20;99.90;;;;;;5071859;28;20457;-58
2021/07/19 00:20:48;;;;;;;9.85;4.45;;;18.10;99.90;;;;;;5071908;28;20387;-58
2021/07/19 00:23:14;;;;;;;8.80;4.35;;;18.00;99.90;;;;;;5071516;28;20379;-58
2021/07/19 00:25:39;;;;;;;7.68;4.20;;;18.00;99.90;;;;;;5072368;28;20412;-58
2021/07/19 00:28:05;;;;;;;7.90;4.03;;;18.00;99.90;;;;;;5071299;28;20419;-58
2021/07/19 00:30:33;;;;;;;8.47;4.17;;;18.00;99.90;;;;;;5070892;28;20399;-58
2021/07/19 00:32:59;;;;;;;6.75;4.30;;;18.10;99.90;;;;;;5071310;28;20419;-57
2021/07/19 00:35:24;;;;;;;7.80;4.43;;;18.10;99.90;;;;;;5072504;28;20480;-57
2021/07/19 00:37:50;;;;;;;7.27;3.93;;;18.20;99.90;;;;;;5072511;28;20417;-58
2021/07/19 00:40:19;;;;;;;7.50;3.80;;;18.20;99.90;;;;;;5071669;28;20387;-58
2021/07/19 00:42:46;;;;;;;8.27;4.50;;;18.20;99.90;;;;;;5071663;28;20383;-57
2021/07/19 00:45:25;;;;;;;8.00;4.45;;;18.20;99.90;;;;;;5071514;28;20384;-57
2021/07/19 00:47:53;;;;;;;7.00;4.20;;;18.20;99.90;;;;;;5080012;28;20436;-57
2021/07/19 00:50:19;;;;;;;9.17;4.03;;;18.20;99.90;;;;;;5077551;28;20385;-58
2021/07/19 00:52:46;;;;;;;8.50;3.90;;;18.30;99.90;;;;;;5075503;28;20405;-57
2021/07/19 00:55:13;;;;;;;9.52;4.60;;;18.30;99.90;;;;;;5070824;28;20698;-58
2021/07/19 00:57:45;;;;;;;6.32;3.70;;;18.30;99.90;;;;;;5071784;28;20651;-58
2021/07/19 01:00:12;;;;;;;8.18;4.22;;;18.20;99.90;;;;;;5069329;28;20927;-58
2021/07/19 01:02:42;;;;;;;8.05;4.20;;;18.20;99.90;;;;;;5071827;28;20396;-58
2021/07/19 01:05:09;;;;;;;8.30;4.20;;;18.10;99.90;;;;;;5070731;28;20375;-58
2021/07/19 01:07:37;;;;;;;7.93;4.00;;;18.20;99.90;;;;;;5071304;28;20396;-58
2021/07/19 01:10:11;;;;;;;12.18;5.07;;;18.10;99.90;;;;;;5070827;28;20417;-59
2021/07/19 01:12:37;;;;;;;8.15;4.50;;;18.10;99.90;;;;;;5071605;28;20407;-58
2021/07/19 01:15:06;;;;;;;9.07;4.70;;;18.00;99.90;;;;;;5070908;28;20372;-58
2021/07/19 01:17:32;;;;;;;7.83;4.90;;;18.00;99.90;;;;;;5071111;28;20470;-58
2021/07/19 01:19:57;;;;;;;7.63;4.20;;;18.00;99.90;;;;;;5071198;28;20474;-55
2021/07/19 01:22:51;;;;;;;10.38;4.22;;;17.90;99.90;;;;;;5070713;28;20380;-58
2021/07/19 01:25:35;;;;;;;9.05;4.43;;;17.90;99.90;;;;;;5070465;28;20443;-58
2021/07/19 01:28:07;;;;;;;8.10;4.07;;;17.80;99.90;;;;;;5070302;28;20413;-58
2021/07/19 01:30:35;;;;;;;7.30;4.18;;;17.80;99.90;;;;;;5070221;28;20770;-58
2021/07/19 01:33:04;;;;;;;8.48;4.28;;;17.90;99.90;;;;;;5070349;28;20376;-57
2021/07/19 01:35:37;;;;;;;7.97;4.47;;;17.90;99.90;;;;;;5071072;28;20427;-58
2021/07/19 01:38:05;;;;;;;7.85;4.30;;;17.90;99.90;;;;;;5070362;28;20861;-58
2021/07/19 01:40:32;;;;;;;6.55;4.03;;;17.50;99.90;;;;;;5070662;28;20392;-59
2021/07/19 01:42:59;;;;;;;8.20;4.00;;;17.90;99.90;;;;;;5070539;28;20479;-55
2021/07/19 01:45:25;;;;;;;6.95;4.30;;;17.70;99.90;;;;;;5071084;28;20391;-58
2021/07/19 01:47:51;;;;;;;10.23;4.67;;;17.80;99.90;;;;;;5070749;28;20372;-58
2021/07/19 01:50:17;;;;;;;7.57;4.00;;;17.80;99.90;;;;;;5068690;28;20376;-58
2021/07/19 01:52:43;;;;;;;7.53;4.10;;;17.80;99.90;;;;;;5070304;28;20462;-57
2021/07/19 01:55:11;;;;;;;6.85;4.10;;;17.70;99.90;;;;;;5070152;28;20391;-58
2021/07/19 01:57:37;;;;;;;7.70;4.30;;;17.70;99.90;;;;;;5070333;28;20411;-58
2021/07/19 02:00:06;;;;;;;10.80;4.50;;;17.70;99.90;;;;;;5069661;28;20380;-57
2021/07/19 02:02:33;;;;;;;7.85;4.15;;;17.60;99.90;;;;;;5070459;28;20380;-58
2021/07/19 02:04:59;;;;;;;10.23;4.10;;;17.60;99.90;;;;;;5069546;28;20753;-56
2021/07/19 02:07:27;;;;;;;8.70;4.30;;;17.70;99.90;;;;;;5070663;28;20404;-58
2021/07/19 02:09:54;;;;;;;8.85;4.65;;;17.80;99.90;;;;;;5067920;28;20457;-58
2021/07/19 02:12:21;;;;;;;8.15;4.28;;;17.80;99.90;;;;;;5069368;28;20427;-57
2021/07/19 02:14:47;;;;;;;7.45;3.95;;;17.70;99.90;;;;;;5070322;28;20376;-58
2021/07/19 02:17:15;;;;;;;7.97;4.28;;;17.70;99.90;;;;;;5069309;28;20388;-58
2021/07/19 02:19:44;;;;;;;9.85;4.30;;;17.70;99.90;;;;;;5069954;28;20865;-58
2021/07/19 02:22:11;;;;;;;7.90;3.90;;;17.70;99.90;;;;;;5069768;28;20390;-57
2021/07/19 02:24:37;;;;;;;7.43;4.20;;;17.70;99.90;;;;;;5069951;28;20380;-58
2021/07/19 02:27:04;;;;;;;7.90;4.10;;;17.60;99.90;;;;;;5069467;28;20375;-58
2021/07/19 02:29:31;;;;;;;8.35;4.32;;;17.60;99.90;;;;;;5070274;28;20392;-58
2021/07/19 02:31:57;;;;;;;6.60;3.83;;;17.50;99.90;;;;;;5069667;28;20380;-55
2021/07/19 02:34:23;;;;;;;7.68;4.20;;;17.50;99.90;;;;;;5068270;28;20403;-58
2021/07/19 02:36:50;;;;;;;7.72;4.22;;;17.60;99.90;;;;;;5069726;28;20388;-58
2021/07/19 02:39:16;;;;;;;8.05;4.10;;;17.50;99.90;;;;;;5069044;28;20468;-58
2021/07/19 02:41:44;;;;;;;7.05;4.30;;;17.50;99.90;;;;;;5069823;28;20391;-58
2021/07/19 02:44:11;;;;;;;9.10;4.57;;;17.40;99.90;;;;;;5069117;28;20440;-58
2021/07/19 02:46:37;;;;;;;8.43;4.30;;;17.40;99.90;;;;;;5069542;28;20764;-57
2021/07/19 02:49:09;;;;;;;9.43;4.57;;;17.40;99.90;;;;;;5068640;28;20391;-57
2021/07/19 02:51:35;;;;;;;8.57;4.15;;;17.40;99.90;;;;;;5069783;28;20387;-57
2021/07/19 02:54:03;;;;;;;9.10;4.78;;;17.30;99.90;;;;;;5069168;28;20864;-57
2021/07/19 02:56:32;;;;;;;8.00;4.35;;;17.30;99.90;;;;;;5069760;28;20372;-58
2021/07/19 02:58:57;;;;;;;6.75;4.00;;;17.30;99.90;;;;;;5068912;28;20415;-55
2021/07/19 03:01:26;;;;;;;8.25;4.70;;;17.30;99.90;;;;;;5068524;28;20376;-58
2021/07/19 03:03:55;;;;;;;8.43;4.80;;;17.30;99.90;;;;;;5069513;28;20376;-57
2021/07/19 03:06:27;;;;;;;7.88;4.70;;;17.30;99.90;;;;;;5068513;28;20383;-58
2021/07/19 03:08:55;;;;;;;13.10;4.65;;;17.30;99.90;;;;;;5069160;28;20403;-58
2021/07/19 03:11:38;;;;;;;8.60;4.40;;;17.40;99.90;;;;;;5068905;28;20887;-58
2021/07/19 03:14:07;;;;;;;8.50;4.43;;;17.30;99.90;;;;;;5068404;28;20391;-57
2021/07/19 03:16:34;;;;;;;7.10;4.13;;;17.30;99.90;;;;;;5069394;28;20393;-58
2021/07/19 03:19:02;;;;;;;10.07;4.83;;;17.30;99.90;;;;;;5068719;28;20447;-55
2021/07/19 03:21:30;;;;;;;11.65;4.90;;;17.20;99.90;;;;;;5071032;28;20391;-58
2021/07/19 03:23:58;;;;;;;8.35;4.30;;;17.20;99.90;;;;;;5076006;28;20383;-58
2021/07/19 03:26:25;;;;;;;10.43;4.80;;;17.20;99.90;;;;;;5075689;28;20849;-58
2021/07/19 03:28:52;;;;;;;8.97;4.60;;;17.20;99.90;;;;;;5076196;28;20475;-58
2021/07/19 03:31:20;;;;;;;10.38;4.60;;;17.20;99.90;;;;;;5085825;28;20406;-57
2021/07/19 03:33:48;;;;;;;8.73;4.70;;;17.20;99.90;;;;;;5096417;28;20374;-57
2021/07/19 03:36:14;;;;;;;7.70;4.22;;;17.10;99.90;;;;;;5094923;28;20428;-58
2021/07/19 03:38:43;;;;;;;15.07;5.03;;;17.20;99.90;;;;;;5095867;28;20421;-58
2021/07/19 03:41:11;;;;;;;10.73;4.80;;;17.20;99.90;;;;;;5094214;28;20413;-58
2021/07/19 03:43:37;;;;;;;10.30;4.65;;;17.20;99.90;;;;;;5096252;28;20478;-58
2021/07/19 03:46:03;;;;;;;9.63;4.90;;;17.10;99.90;;;;;;5095429;28;20836;-58
2021/07/19 03:48:30;;;;;;;10.38;4.90;;;17.00;99.90;;;;;;5096142;28;20374;-58
2021/07/19 03:50:57;;;;;;;8.63;4.80;;;17.00;99.90;;;;;;5096020;28;20376;-58
2021/07/19 03:53:23;;;;;;;9.07;5.40;;;17.00;99.90;;;;;;5095110;28;20374;-58
2021/07/19 03:55:50;;;;;;;8.18;4.55;;;17.10;99.90;;;;;;5094558;28;20389;-58
2021/07/19 03:58:16;;;;;;;9.32;5.10;;;17.10;99.90;;;;;;5095268;28;20434;-58
2021/07/19 04:00:43;;;;;;;11.55;5.13;;;17.10;99.90;;;;;;5096380;28;20469;-58
2021/07/19 04:03:21;;;;;;;8.60;4.90;;;17.00;99.90;;;;;;5095291;28;20385;-57
2021/07/19 04:05:54;;;;;;;9.15;5.30;;;17.10;99.90;;;;;;5095901;28;20394;-58
2021/07/19 04:08:20;;;;;;;10.90;5.00;;;17.00;99.90;;;;;;5094190;28;20468;-58
2021/07/19 04:10:49;;;;;;;10.57;4.95;;;17.10;99.90;;;;;;5095233;28;20398;-58
2021/07/19 04:13:16;;;;;;;8.87;4.43;;;17.20;99.90;;;;;;5095152;28;20385;-58
2021/07/19 04:15:46;;;;;;;9.25;5.10;;;17.30;99.90;;;;;;5093516;28;20866;-59
2021/07/19 04:18:13;;;;;;;10.98;5.57;;;17.40;99.90;;;;;;5082324;28;20404;-58
2021/07/19 04:20:40;;;;;;;8.57;4.88;;;17.40;99.90;;;;;;5086938;28;20379;-58
2021/07/19 04:23:17;;;;;;;9.32;4.85;;;17.30;99.90;;;;;;5074955;28;20708;-58
2021/07/19 04:25:46;;;;;;;10.82;5.10;;;17.40;99.90;;;;;;5075763;28;20375;-58
2021/07/19 04:28:15;;;;;;;12.20;4.80;;;17.50;99.90;;;;;;5087729;28;20418;-59
2021/07/19 04:30:41;;;;;;;10.60;4.90;;;17.50;99.90;;;;;;5095727;28;20439;-59
2021/07/19 04:33:07;;;;;;;9.73;5.10;;;17.50;99.90;;;;;;5091805;28;20378;-58
2021/07/19 04:35:33;;;;;;;9.15;4.90;;;17.50;99.90;;;;;;5091285;28;20791;-59
2021/07/19 04:37:58;;;;;;;9.33;4.50;;;17.40;99.90;;;;;;5092330;28;20534;-56
2021/07/19 04:40:26;;;;;;;13.10;5.55;;;17.50;99.90;;;;;;5090780;28;20431;-58
2021/07/19 04:42:52;;;;;;;9.65;5.50;;;17.60;99.90;;;;;;5092619;28;20397;-58
2021/07/19 04:45:20;;;;;;;10.27;5.20;;;17.70;99.90;;;;;;5090299;28;20401;-61
2021/07/19 04:47:49;;;;;;;9.52;5.15;;;17.80;99.90;;;;;;5092057;28;20875;-59
2021/07/19 04:50:19;;;;;;;8.18;4.70;;;17.80;99.90;;;;;;5090467;28;20825;-59
2021/07/19 04:52:45;;;;;;;9.40;4.80;;;17.90;99.90;;;;;;5065299;28;20390;-58
2021/07/19 04:55:17;;;;;;;9.88;4.60;;;18.00;99.90;;;;;;5091694;28;20374;-59
2021/07/19 04:57:44;;;;;;;9.10;4.78;;;18.20;99.90;;;;;;5092115;28;20444;-59
2021/07/19 05:00:10;;;;;;;9.17;4.70;;;18.50;99.90;;;;;;5091322;28;20382;-59
2021/07/19 05:02:40;;;;;;;8.23;5.00;;;18.70;99.90;;;;;;5091061;28;20385;-57
2021/07/19 05:05:06;;;;;;;8.98;4.55;;;19.10;99.90;;;;;;5091323;28;20473;-57
2021/07/19 05:07:33;;;;;;;13.05;4.80;;;19.40;99.90;;;;;;5092120;28;20390;-58
2021/07/19 05:10:03;;;;;;;7.73;4.87;;;19.50;99.90;;;;;;5091251;28;20398;-55
2021/07/19 05:12:31;;;;;;;7.18;4.68;;;19.70;99.90;;;;;;5090802;28;20378;-58
2021/07/19 05:14:59;;;;;;;8.98;4.75;;;20.20;99.90;;;;;;5091562;28;20423;-61
2021/07/19 05:17:27;;;;;;;9.00;4.20;;;21.50;99.90;;;;;;5094199;28;20407;-59
2021/07/19 05:19:54;;;;;;;10.45;4.40;;;22.10;99.90;;;;;;5092615;28;20380;-57
2021/07/19 05:22:20;;;;;;;8.10;3.97;;;23.10;99.90;;;;;;5090753;28;20407;-58
2021/07/19 05:24:46;;;;;;;8.98;4.13;;;24.10;99.90;;;;;;5091287;28;20439;-58
2021/07/19 05:27:14;;;;;;;7.78;3.90;;;25.10;99.90;;;;;;5091036;28;20378;-59
2021/07/19 05:29:41;;;;;;;7.40;4.20;;;26.00;99.90;;;;;;5091573;28;20392;-59
2021/07/19 05:32:08;;;;;;;7.72;4.30;;;26.60;99.90;;;;;;5090534;28;20413;-59
2021/07/19 05:34:35;;;;;;;9.18;4.30;;;27.10;99.90;;;;;;5091252;28;20374;-59
2021/07/19 05:37:01;;;;;;;8.20;4.50;;;27.60;99.90;;;;;;5089414;28;20394;-57
2021/07/19 05:39:27;;;;;;;8.65;4.13;;;27.80;99.90;;;;;;5091275;28;20501;-59
2021/07/19 05:41:53;;;;;;;8.70;5.03;;;28.10;99.90;;;;;;5091086;28;20465;-57
2021/07/19 05:44:19;;;;;;;9.50;6.30;;;29.20;99.90;;;;;;5090254;28;20469;-58
2021/07/19 05:46:44;;;;;;;8.70;7.70;;;29.90;99.90;;;;;;5091080;28;20427;-58
2021/07/19 05:49:10;;;;;;;9.45;6.85;;;30.60;97.50;;;;;;5090226;28;20568;-57
2021/07/19 05:51:36;;;;;;;9.07;6.73;;;30.70;96.60;;;;;;5081098;28;20469;-58
2021/07/19 05:54:03;;;;;;;7.50;4.00;;;30.90;95.80;;;;;;5089984;28;20451;-56
2021/07/19 05:56:31;;;;;;;8.70;3.88;;;31.20;94.90;;;;;;5090058;28;20389;-60
2021/07/19 05:58:57;;;;;;;7.47;3.90;;;31.50;93.90;;;;;;5090459;28;20402;-58
2021/07/19 06:01:22;;;;;;;9.40;4.10;;;31.30;92.70;;;;;;5089488;28;20389;-58
2021/07/19 06:03:48;;;;;;;8.60;3.90;;;31.00;92.70;;;;;;5090361;28;20732;-60
2021/07/19 06:06:14;;;;;;;8.43;4.05;;;31.10;92.50;;;;;;5089121;28;20879;-59
2021/07/19 06:08:39;;;;;;;8.23;5.30;;;31.40;92.20;;;;;;5088553;28;20765;-58
2021/07/19 06:11:05;;;;;;;8.67;4.00;;;31.70;91.10;;;;;;5088897;28;20390;-60
2021/07/19 06:13:31;;;;;;;9.40;4.03;;;32.10;90.20;;;;;;5089874;28;20456;-60
2021/07/19 06:15:56;;;;;;;8.88;4.15;;;32.40;87.90;;;;;;5090303;28;20381;-60
2021/07/19 06:18:22;;;;;;;7.35;3.60;;;32.30;88.10;;;;;;5089542;28;21063;-61
2021/07/19 06:20:47;;;;;;;9.67;3.83;;;32.30;86.50;;;;;;5090156;28;20469;-60
2021/07/19 06:23:13;;;;;;;7.70;3.90;;;32.20;86.60;;;;;;5088940;28;20388;-60
2021/07/19 06:25:42;;;;;;;7.80;3.80;;;32.20;87.00;;;;;;5090345;28;20382;-60
2021/07/19 06:28:09;;;;;;;7.70;3.63;;;32.60;86.50;;;;;;5073682;28;20726;-61
2021/07/19 06:30:35;;;;;;;8.35;4.13;;;32.70;85.40;;;;;;5079627;28;20434;-60
2021/07/19 06:33:01;;;;;;;6.85;3.40;;;32.80;86.00;;;;;;5069449;28;20383;-56
2021/07/19 06:35:27;;;;;;;7.70;3.87;;;33.10;83.20;;;;;;5069825;28;20392;-59
2021/07/19 06:37:53;;;;;;;9.67;3.97;;;32.50;85.00;;;;;;5068971;28;20430;-59
2021/07/19 06:40:19;;;;;;;8.13;4.00;;;32.00;86.40;;;;;;5068589;28;20433;-59
2021/07/19 06:42:45;;;;;;;8.88;4.53;;;32.00;87.30;;;;;;5069398;28;20397;-59
2021/07/19 06:45:13;;;;;;;7.65;4.10;;;31.90;86.10;;;;;;5068992;28;20396;-60
2021/07/19 06:47:40;;;;;;;7.30;3.50;;;31.60;88.00;;;;;;5068936;28;20519;-59
2021/07/19 06:50:08;;;;;;;7.60;4.18;;;31.90;86.50;;;;;;5068707;28;20384;-60
2021/07/19 06:52:34;;;;;;;7.18;3.88;;;32.20;85.90;;;;;;5069085;28;20441;-60
2021/07/19 06:55:00;;;;;;;9.80;4.20;;;32.50;84.80;;;;;;5068196;28;20754;-60
2021/07/19 06:57:25;;;;;;;7.40;3.83;;;33.30;83.10;;;;;;5068244;28;20466;-59
2021/07/19 06:59:51;;;;;;;7.63;3.85;;;33.10;81.60;;;;;;5078498;28;20895;-60
2021/07/19 07:02:17;;;;;;;7.18;3.85;;;33.00;81.40;;;;;;5088765;28;20891;-59
2021/07/19 07:04:43;;;;;;;10.38;4.40;;;32.60;82.50;;;;;;5088298;28;20432;-59
2021/07/19 07:07:09;;;;;;;8.00;4.00;;;32.00;83.50;;;;;;5087997;28;20879;-59
2021/07/19 07:09:35;;;;;;;12.10;4.15;;;31.80;84.80;;;;;;5088864;28;20408;-59
2021/07/19 07:12:01;;;;;;;8.13;3.80;;;31.50;86.30;;;;;;5089482;28;20917;-57
2021/07/19 07:14:27;;;;;;;7.20;3.40;;;31.60;85.90;;;;;;5088931;28;20394;-59
2021/07/19 07:16:52;;;;;;;6.60;3.92;;;31.70;87.00;;;;;;5089096;28;20431;-61
2021/07/19 07:19:18;;;;;;;7.77;3.80;;;32.70;83.40;;;;;;5088379;28;20402;-60
2021/07/19 07:21:44;;;;;;;7.70;4.07;;;33.40;79.70;;;;;;5089217;28;20523;-59
2021/07/19 07:24:09;;;;;;;8.40;6.70;;;33.20;81.40;;;;;;5088255;28;20378;-60
2021/07/19 07:26:35;;;;;;;7.82;4.53;;;33.70;79.50;;;;;;5088690;28;20379;-60
2021/07/19 07:29:01;;;;;;;10.77;4.20;;;33.80;78.30;;;;;;5088980;28;20386;-59
2021/07/19 07:31:27;;;;;;;7.35;3.80;;;33.80;77.30;;;;;;5089119;28;20488;-59
2021/07/19 07:33:57;;;;;;;7.88;4.10;;;34.30;76.60;;;;;;5087804;28;20381;-60
2021/07/19 07:36:24;;;;;;;8.55;4.00;;;34.30;76.40;;;;;;5088178;28;20444;-59
2021/07/19 07:38:50;;;;;;;7.80;4.03;;;34.70;74.60;;;;;;5088788;28;20405;-60
2021/07/19 07:41:17;;;;;;;11.15;5.30;;;34.20;74.60;;;;;;5088350;28;20392;-61
2021/07/19 07:43:42;;;;;;;10.07;5.90;;;34.50;74.10;;;;;;5089323;28;20416;-61
2021/07/19 07:46:09;;;;;;;9.25;4.22;;;34.80;72.10;;;;;;5088412;28;20851;-59
2021/07/19 07:48:36;;;;;;;10.20;4.65;;;34.10;73.10;;;;;;5089058;28;20388;-60
2021/07/19 07:51:03;;;;;;;7.93;3.83;;;33.40;76.10;;;;;;5080079;28;20864;-60
2021/07/19 07:53:29;;;;;;;8.90;3.88;;;33.90;76.10;;;;;;5077074;28;20382;-60
2021/07/19 07:55:57;;;;;;;8.90;4.40;;;34.00;74.30;;;;;;5068866;28;20375;-61
2021/07/19 07:58:26;;;;;;;7.70;4.10;;;33.90;75.40;;;;;;5067929;28;20483;-61
2021/07/19 08:00:52;;;;;;;8.10;4.00;;;34.30;72.80;;;;;;5086531;28;20465;-60
2021/07/19 08:03:18;;;;;;;8.03;4.20;;;34.70;72.30;;;;;;5087794;28;20436;-61
2021/07/19 08:05:44;;;;;;;9.80;5.40;;;34.80;72.20;;;;;;5088787;28;20392;-59
2021/07/19 08:08:10;;;;;;;9.30;4.30;;;35.10;71.20;;;;;;5087752;28;20595;-59
2021/07/19 08:10:35;;;;;;;7.40;3.83;;;35.00;70.40;;;;;;5092963;28;20411;-59
2021/07/19 08:13:01;;;;;;;8.70;4.40;;;34.20;72.70;;;;;;5091055;28;20382;-60
2021/07/19 08:15:27;;;;;;;8.60;4.90;;;34.40;72.20;;;;;;5090564;28;20444;-62
2021/07/19 08:17:53;;;;;;;12.45;11.25;;;34.60;71.70;;;;;;5092060;28;20451;-61
2021/07/19 08:20:18;;;;;;;12.23;11.02;;;35.10;69.20;;;;;;5091961;28;20373;-60
2021/07/19 08:22:47;;;;;;;10.60;9.60;;;35.50;68.60;;;;;;5092331;28;20382;-60
2021/07/19 08:25:14;;;;;;;10.20;6.20;;;35.50;67.90;;;;;;5091627;28;20459;-61
2021/07/19 08:27:40;;;;;;;9.18;5.70;;;34.80;69.70;;;;;;5092334;28;20378;-60
2021/07/19 08:30:07;;;;;;;7.50;5.57;;;34.50;70.80;;;;;;5091636;28;20382;-57
2021/07/19 08:32:33;;;;;;;10.48;5.70;;;35.50;68.90;;;;;;5092222;28;20926;-59
2021/07/19 08:34:58;;;;;;;8.30;3.83;;;35.90;67.10;;;;;;5092231;28;20474;-58
2021/07/19 08:37:25;;;;;;;8.33;4.90;;;36.40;64.60;;;;;;5091425;28;20398;-59
2021/07/19 08:39:51;;;;;;;8.50;4.40;;;36.20;63.70;;;;;;5091727;28;20905;-60
2021/07/19 08:42:16;;;;;;;9.40;5.30;;;35.70;65.60;;;;;;5091136;28;20370;-60
2021/07/19 08:44:42;;;;;;;10.60;9.50;;;35.80;64.90;;;;;;5090760;28;20438;-60
2021/07/19 08:47:09;;;;;;;11.35;10.30;;;36.20;63.20;;;;;;5091505;28;20378;-60
2021/07/19 08:49:35;;;;;;;9.30;8.40;;;36.50;62.20;;;;;;5091839;28;20527;-60
2021/07/19 08:52:02;;;;;;;10.73;9.63;;;36.40;62.20;;;;;;5091716;28;20362;-60
2021/07/19 08:54:31;;;;;;;9.80;7.30;;;35.90;63.10;;;;;;5090960;28;20409;-60
2021/07/19 08:56:58;;;;;;;15.50;14.10;;;35.40;63.10;;;;;;5091268;28;20494;-60
2021/07/19 08:59:24;;;;;;;8.67;6.77;;;35.20;64.10;;;;;;5090054;28;20398;-59
2021/07/19 09:01:50;;;;;;;8.60;6.63;;;35.20;64.10;;;;;;5081935;28;20391;-60
2021/07/19 09:04:18;;;;;;;8.07;7.13;;;34.60;66.20;;;;;;5085605;28;20843;-60
2021/07/19 09:06:46;;;;;;;9.25;8.25;;;35.20;65.60;;;;;;5073979;28;20437;-60
2021/07/19 09:09:11;;;;;;;9.90;8.90;;;36.20;61.50;;;;;;5070350;28;20411;-60
2021/07/19 09:11:48;;;;;;;9.95;6.72;;;35.90;63.40;;;;;;5070062;28;20383;-61
2021/07/19 09:14:16;;;;;;;7.70;4.40;;;36.30;62.30;;;;;;5069226;28;20404;-61
2021/07/19 09:16:44;;;;;;;7.70;4.80;;;36.80;61.20;;;;;;5070838;28;20401;-61
2021/07/19 09:19:13;;;;;;;7.93;4.85;;;36.40;62.70;;;;;;5069722;28;20862;-59
2021/07/19 09:21:40;;;;;;;9.63;5.05;;;36.70;60.60;;;;;;5070790;28;20475;-60
2021/07/19 09:24:09;;;;;;;7.50;5.80;;;36.70;61.10;;;;;;5070856;28;20380;-57
2021/07/19 09:26:36;;;;;;;10.57;4.67;;;36.70;59.80;;;;;;5071050;28;20462;-62
2021/07/19 09:29:04;;;;;;;10.10;4.07;;;36.80;61.50;;;;;;5070731;28;20384;-60
2021/07/19 09:31:38;;;;;;;7.43;4.20;;;37.90;58.60;;;;;;5070136;28;20376;-60
2021/07/19 09:34:15;;;;;;;8.70;4.32;;;37.80;58.00;;;;;;5070453;28;20376;-60
2021/07/19 09:37:05;;;;;;;8.68;4.45;;;38.30;57.00;;;;;;5070868;28;20469;-62
2021/07/19 09:39:41;;;;;;;7.80;4.20;;;37.90;56.50;;;;;;5070220;28;20488;-61
2021/07/19 09:42:17;;;;;;;8.80;4.10;;;38.30;55.50;;;;;;5070272;28;20927;-58
2021/07/19 09:44:51;;;;;;;9.20;4.22;;;37.90;55.80;;;;;;5071125;28;20386;-61
2021/07/19 09:47:17;;;;;;;8.68;4.40;;;38.40;55.50;;;;;;5069181;28;20842;-62
2021/07/19 09:49:43;;;;;;;11.03;4.43;;;37.40;56.70;;;;;;5070287;28;20382;-61
2021/07/19 09:52:13;;;;;;;8.00;4.50;;;36.60;57.30;;;;;;5069677;28;20864;-60
2021/07/19 09:54:43;;;;;;;11.13;7.83;;;36.00;58.30;;;;;;5070452;28;20380;-61
2021/07/19 09:57:09;;;;;;;10.90;8.98;;;34.00;61.40;;;;;;5069827;28;20384;-58
2021/07/19 09:59:55;;;;;;;10.23;7.75;;;33.30;61.10;;;;;;5077847;28;20437;-61
2021/07/19 10:02:33;;;;;;;8.13;4.63;;;35.20;60.20;;;;;;5075398;28;20478;-61
2021/07/19 10:04:59;;;;;;;6.88;3.58;;;36.40;58.80;;;;;;5081989;28;20399;-60
2021/07/19 10:07:25;;;;;;;8.10;3.53;;;37.20;56.60;;;;;;5079062;28;20440;-60
2021/07/19 10:09:58;;;;;;;10.52;4.00;;;37.30;55.50;;;;;;5079607;28;20420;-61
2021/07/19 10:12:24;;;;;;;9.40;7.10;;;35.30;57.80;;;;;;5089670;28;20489;-60
2021/07/19 10:14:51;;;;;;;10.05;7.30;;;34.60;60.00;;;;;;5083205;28;20421;-61
2021/07/19 10:17:17;;;;;;;9.30;7.90;;;33.30;62.40;;;;;;5076652;28;20419;-61
2021/07/19 10:19:43;;;;;;;11.43;8.50;;;32.20;65.10;;;;;;5093966;28;20554;-61
2021/07/19 10:22:14;;;;;;;11.10;7.63;;;31.80;68.50;;;;;;5090161;28;20392;-58
2021/07/19 10:24:43;;;;;;;9.32;7.35;;;33.30;65.00;;;;;;5080251;28;20483;-63
2021/07/19 10:27:18;;;;;;;10.85;7.63;;;33.90;63.00;;;;;;5105084;28;20405;-60
2021/07/19 10:29:46;;;;;;;9.53;7.00;;;34.20;61.10;;;;;;5075708;28;20401;-59
2021/07/19 10:32:12;;;;;;;8.30;7.05;;;33.00;63.40;;;;;;5090982;28;20419;-60
2021/07/19 10:34:41;;;;;;;8.80;7.35;;;32.70;65.60;;;;;;5090092;28;20382;-61
2021/07/19 10:37:13;;;;;;;8.98;7.60;;;33.40;61.50;;;;;;5098596;28;20736;-58
2021/07/19 10:39:40;;;;;;;8.57;6.50;;;32.50;61.80;;;;;;5092876;28;20394;-61
2021/07/19 10:42:08;;;;;;;9.43;6.85;;;32.40;63.70;;;;;;5091982;28;20386;-57
2021/07/19 10:44:36;;;;;;;9.00;6.80;;;31.80;64.10;;;;;;5094798;28;20396;-61
2021/07/19 10:47:25;;;;;;;10.90;7.37;;;31.40;65.30;;;;;;5092379;28;20384;-61
2021/07/19 10:49:59;;;;;;;8.90;7.97;;;31.10;66.30;;;;;;5082532;28;20400;-61
2021/07/19 10:52:33;;;;;;;9.63;8.05;;;31.40;66.00;;;;;;5084645;28;20398;-61
2021/07/19 10:55:00;;;;;;;8.25;7.45;;;31.50;64.60;;;;;;5083407;28;20422;-60
2021/07/19 10:57:44;;;;;;;8.60;7.60;;;31.60;65.60;;;;;;5087584;28;20393;-60
2021/07/19 11:00:14;;;;;;;9.80;7.80;;;31.80;63.10;;;;;;5081717;28;20875;-58
2021/07/19 11:02:40;;;;;;;8.85;6.03;;;31.70;64.30;;;;;;5083128;28;20387;-61
2021/07/19 11:05:09;;;;;;;8.57;6.60;;;31.30;61.00;;;;;;5081913;28;20715;-62
2021/07/19 11:07:39;;;;;;;8.48;7.20;;;31.10;63.20;;;;;;5087633;28;20402;-60
2021/07/19 11:10:17;;;;;;;7.55;3.50;;;31.40;65.60;;;;;;5082395;28;20424;-60
2021/07/19 11:12:51;;;;;;;7.63;3.47;;;31.70;65.80;;;;;;5084689;28;20399;-61
2021/07/19 11:15:19;;;;;;;7.78;3.28;;;31.40;66.20;;;;;;5083997;28;20395;-62
2021/07/19 11:17:45;;;;;;;6.93;3.05;;;30.70;67.00;;;;;;5090355;28;20409;-60
2021/07/19 11:20:13;;;;;;;8.97;7.30;;;29.70;66.50;;;;;;5082654;28;20404;-61
2021/07/19 11:22:39;;;;;;;8.07;3.50;;;29.40;67.80;;;;;;5088567;28;20397;-62
2021/07/19 11:25:10;;;;;;;9.23;3.38;;;29.60;66.90;;;;;;5087933;28;20728;-61
2021/07/19 11:27:38;;;;;;;5.82;2.53;;;30.30;67.60;;;;;;5087829;28;20409;-60
2021/07/19 11:30:19;;;;;;;7.87;2.80;;;30.80;62.90;;;;;;5089150;28;20401;-60
2021/07/19 11:32:45;;;;;;;6.30;2.40;;;31.00;60.60;;;;;;5089173;28;20861;-61
2021/07/19 11:35:22;;;;;;;6.00;1.90;;;30.20;60.00;;;;;;5088256;28;20370;-58
2021/07/19 11:37:51;;;;;;;6.88;2.20;;;30.00;58.80;;;;;;5088931;28;20421;-61
2021/07/19 11:40:31;;;;;;;6.03;2.63;;;30.10;59.20;;;;;;5088482;28;20382;-60
2021/07/19 11:43:11;;;;;;;7.20;2.70;;;30.50;61.80;;;;;;5090788;28;20382;-61
2021/07/19 11:45:42;;;;;;;7.03;2.80;;;31.00;63.40;;;;;;5093019;28;20377;-59
2021/07/19 11:48:08;;;;;;;7.10;2.88;;;31.10;62.00;;;;;;5091953;28;20740;-58
2021/07/19 11:50:34;;;;;;;6.07;2.70;;;31.00;62.90;;;;;;5092535;28;20408;-61
2021/07/19 11:53:00;;;;;;;6.78;3.10;;;31.10;62.50;;;;;;5093137;28;20385;-61
2021/07/19 11:55:25;;;;;;;7.80;3.20;;;31.20;64.20;;;;;;5097406;28;20940;-63
2021/07/19 11:58:00;;;;;;;6.00;2.97;;;31.50;63.60;;;;;;5105204;28;20746;-62
2021/07/19 12:00:28;;;;;;;6.32;2.50;;;31.50;63.80;;;;;;5087176;28;20403;-61
2021/07/19 12:03:07;;;;;;;5.90;2.70;;;31.30;63.50;;;;;;5090041;28;20744;-62
2021/07/19 12:05:35;;;;;;;6.00;2.60;;;31.60;63.40;;;;;;5091929;28;20390;-61
2021/07/19 12:08:05;;;;;;;6.53;3.33;;;32.10;63.30;;;;;;5092458;28;20398;-60
2021/07/19 12:10:33;;;;;;;6.03;3.00;;;31.80;64.50;;;;;;5092149;28;20714;-60
2021/07/19 12:13:08;;;;;;;6.40;3.00;;;33.00;65.40;;;;;;5092743;28;20382;-59
2021/07/19 12:15:33;;;;;;;7.97;3.60;;;32.10;63.40;;;;;;5091914;28;20844;-61
2021/07/19 12:17:59;;;;;;;7.72;3.42;;;31.60;62.70;;;;;;5092322;28;20459;-60
2021/07/19 12:20:27;;;;;;;9.65;3.17;;;31.40;64.50;;;;;;5091623;28;20374;-60
2021/07/19 12:22:55;;;;;;;7.30;3.45;;;31.80;63.60;;;;;;5092494;28;20461;-59
2021/07/19 12:25:21;;;;;;;7.13;3.13;;;31.90;65.40;;;;;;5091646;28;20374;-60
2021/07/19 12:28:17;;;;;;;7.03;3.20;;;31.60;65.70;;;;;;5089837;28;20713;-60
2021/07/19 12:30:43;;;;;;;8.63;2.97;;;31.90;65.60;;;;;;5088656;28;20766;-60
2021/07/19 12:33:08;;;;;;;7.13;2.97;;;32.10;63.60;;;;;;5082648;28;20395;-59
2021/07/19 12:35:34;;;;;;;7.90;2.90;;;31.60;63.70;;;;;;5077806;28;20907;-59
2021/07/19 12:38:00;;;;;;;8.73;3.20;;;30.90;65.90;;;;;;5077312;28;20420;-59
2021/07/19 12:40:27;;;;;;;10.15;3.40;;;30.90;67.40;;;;;;5088734;28;20385;-62
2021/07/19 12:42:53;;;;;;;7.25;3.20;;;31.10;66.80;;;;;;5090614;28;20861;-63
2021/07/19 12:45:19;;;;;;;8.97;3.20;;;31.50;67.20;;;;;;5086507;28;20476;-66
2021/07/19 12:47:48;;;;;;;6.53;3.03;;;31.70;66.90;;;;;;5089510;28;20389;-65
2021/07/19 12:50:14;;;;;;;7.60;3.17;;;31.90;66.20;;;;;;5090292;28;20412;-63